Time;durP1;ratioP1;P1;durP2;ratioP2;P2;SDS_P1;SDS_P2;PMS_P1;PMS_P2;Temp;Humidity;BMP_temperature;BMP_pressure;BME280_temperature;BME280_humidity;BME280_pressure;Samples;Min_cycle;Max_cycle;Signal;HPM_P1;HPM_P2
2023/07/05 00:01:41;;;;;;;67.93;61.42;;;;;;;22.05;100.00;100862.47;4992536;28;20454;-83
2023/07/05 00:04:09;;;;;;;69.40;62.75;;;;;;;22.01;100.00;100864.13;5014241;28;20594;-82
2023/07/05 00:06:36;;;;;;;74.57;67.45;;;;;;;21.65;100.00;100872.41;4992528;28;20050;-83
2023/07/05 00:09:04;;;;;;;81.43;73.80;;;;;;;21.75;100.00;100866.94;5000013;28;20057;-82
2023/07/05 00:11:35;;;;;;;77.22;70.15;;;;;;;21.66;100.00;100866.69;4996534;28;20444;-82
2023/07/05 00:14:04;;;;;;;77.03;69.47;;;;;;;21.73;100.00;100871.84;5005194;28;20119;-83
2023/07/05 00:16:31;;;;;;;84.35;76.60;;;;;;;21.38;100.00;100868.16;5011131;28;20447;-82
2023/07/05 00:18:57;;;;;;;84.22;76.72;;;;;;;21.73;100.00;100869.94;5004057;28;20046;-83
2023/07/05 00:24:46;;;;;;;73.05;66.43;;;;;;;21.89;100.00;100867.97;5010684;28;20060;-84
2023/07/05 00:27:14;;;;;;;79.18;71.97;;;;;;;21.47;100.00;100873.81;5015737;28;20495;-84
2023/07/05 00:30:00;;;;;;;75.38;68.53;;;;;;;21.89;100.00;100872.56;5015679;28;20053;-84
2023/07/05 00:32:27;;;;;;;79.65;72.57;;;;;;;21.74;100.00;100876.13;5015742;28;20049;-84
2023/07/05 00:34:57;;;;;;;80.30;72.97;;;;;;;21.70;100.00;100877.78;5005022;28;20650;-83
2023/07/05 00:37:24;;;;;;;71.22;64.05;;;;;;;21.93;100.00;100870.91;4996204;28;20050;-83
2023/07/05 00:39:51;;;;;;;66.78;60.42;;;;;;;21.95;100.00;100866.03;5015167;28;20054;-83
2023/07/05 00:42:19;;;;;;;66.82;60.63;;;;;;;22.06;100.00;100859.50;5014694;28;20053;-82
2023/07/05 00:45:35;;;;;;;74.35;67.28;;;;;;;22.04;100.00;100861.66;5009070;28;20435;-82
2023/07/05 00:48:22;;;;;;;67.53;61.22;;;;;;;22.17;100.00;100868.38;4995524;28;20096;-84
2023/07/05 00:50:52;;;;;;;67.00;60.38;;;;;;;22.13;100.00;100875.41;4996722;28;20050;-82
2023/07/05 00:53:19;;;;;;;71.72;65.22;;;;;;;21.99;100.00;100869.00;5013613;28;20053;-82
2023/07/05 00:55:59;;;;;;;89.65;81.93;;;;;;;21.60;100.00;100867.00;4994768;28;20052;-84
2023/07/05 00:58:27;;;;;;;113.55;104.78;;;;;;;21.56;100.00;100871.34;4994943;28;20058;-82
2023/07/05 01:00:57;;;;;;;125.50;116.20;;;;;;;21.54;100.00;100870.81;4995328;28;20046;-83
2023/07/05 01:03:29;;;;;;;124.30;115.10;;;;;;;21.38;100.00;100864.66;4997446;28;20042;-82
2023/07/05 01:06:22;;;;;;;139.52;129.30;;;;;;;20.83;100.00;100864.44;5009773;28;20641;-83
2023/07/05 01:08:49;;;;;;;131.57;122.07;;;;;;;21.32;100.00;100863.81;5013682;28;20056;-81
2023/07/05 01:11:26;;;;;;;144.55;133.68;;;;;;;21.44;100.00;100867.06;5011309;28;20038;-82
2023/07/05 01:14:01;;;;;;;86.95;79.68;;;;;;;21.35;100.00;100870.56;4997095;28;20042;-82
2023/07/05 01:16:44;;;;;;;141.82;131.52;;;;;;;21.45;100.00;100868.69;5010859;28;20061;-82
2023/07/05 01:19:31;;;;;;;153.25;141.95;;;;;;;20.68;100.00;100869.81;4994350;28;20581;-83
2023/07/05 01:22:04;;;;;;;182.98;169.60;;;;;;;20.80;100.00;100868.47;4995121;28;20054;-83
2023/07/05 01:25:16;;;;;;;176.20;163.30;;;;;;;21.05;100.00;100873.03;4995322;28;20058;-83
2023/07/05 01:28:02;;;;;;;192.68;178.68;;;;;;;21.22;100.00;100872.75;5009981;28;20492;-84
2023/07/05 01:31:09;;;;;;;183.90;170.45;;;;;;;21.00;100.00;100864.97;5014133;28;20084;-84
2023/07/05 01:33:47;;;;;;;160.38;148.35;;;;;;;21.16;100.00;100862.25;5014401;28;20113;-84
2023/07/05 01:36:15;;;;;;;141.50;131.15;;;;;;;21.19;100.00;100862.50;5014861;28;20050;-84
2023/07/05 01:38:44;;;;;;;90.05;81.38;;;;;;;20.80;100.00;100848.78;5014164;28;20046;-85
2023/07/05 01:41:22;;;;;;;87.07;79.28;;;;;;;21.12;100.00;100858.44;5014328;28;20046;-84
2023/07/05 01:43:52;;;;;;;88.85;81.05;;;;;;;21.16;100.00;100854.13;5014588;28;20495;-85
2023/07/05 01:46:26;;;;;;;95.60;87.22;;;;;;;20.94;100.00;100844.44;5014325;28;20053;-84
2023/07/05 01:49:07;;;;;;;76.35;69.10;;;;;;;20.99;100.00;100846.31;5014256;28;20050;-85
2023/07/05 01:51:53;;;;;;;82.45;75.07;;;;;;;20.72;100.00;100843.91;5014194;28;20058;-84
2023/07/05 01:54:30;;;;;;;88.18;80.43;;;;;;;20.86;100.00;100847.69;5014026;28;20056;-84
2023/07/05 01:57:07;;;;;;;89.10;80.80;;;;;;;20.69;100.00;100847.94;5008907;28;20112;-84
2023/07/05 01:59:46;;;;;;;87.20;79.20;;;;;;;20.43;100.00;100849.00;5014004;28;20049;-84
2023/07/05 02:02:19;;;;;;;96.97;88.68;;;;;;;20.34;100.00;100852.22;5013972;28;20073;-84
2023/07/05 02:04:54;;;;;;;92.88;84.68;;;;;;;20.94;100.00;100863.34;5014065;28;20058;-84
2023/07/05 02:07:32;;;;;;;91.53;83.60;;;;;;;20.77;100.00;100858.22;5014032;28;20049;-84
2023/07/05 02:10:07;;;;;;;93.88;85.78;;;;;;;20.66;100.00;100842.28;5013620;28;20059;-83
2023/07/05 02:12:34;;;;;;;175.30;162.68;;;;;;;20.70;100.00;100851.50;4994893;28;20050;-82
2023/07/05 02:15:04;;;;;;;169.70;157.68;;;;;;;20.92;100.00;100857.41;5012607;28;20057;-82
2023/07/05 02:17:47;;;;;;;199.23;185.27;;;;;;;20.40;100.00;100855.75;4996544;28;20523;-84
2023/07/05 02:20:23;;;;;;;186.07;172.88;;;;;;;20.62;100.00;100855.53;4994292;28;20416;-85
2023/07/05 02:22:57;;;;;;;185.80;172.60;;;;;;;20.55;100.00;100861.19;4993851;28;20042;-84
2023/07/05 02:25:28;;;;;;;217.25;201.88;;;;;;;20.64;100.00;100863.38;4993967;28;20057;-84
2023/07/05 02:27:55;;;;;;;198.63;184.45;;;;;;;20.70;100.00;100851.50;4993300;28;20052;-84
2023/07/05 02:30:24;;;;;;;124.97;115.18;;;;;;;20.98;100.00;100860.91;4993908;28;20431;-84
2023/07/05 02:33:34;;;;;;;122.93;113.03;;;;;;;20.95;100.00;100862.25;4994094;28;20050;-84
2023/07/05 02:36:08;;;;;;;118.28;108.93;;;;;;;20.96;100.00;100863.06;5009911;28;20065;-84
2023/07/05 02:38:43;;;;;;;109.63;101.03;;;;;;;20.92;100.00;100865.50;5013549;28;20046;-84
2023/07/05 02:41:18;;;;;;;148.93;138.25;;;;;;;20.71;100.00;100859.28;5013260;28;20521;-84
2023/07/05 02:43:46;;;;;;;154.05;143.05;;;;;;;20.99;100.00;100863.31;5013451;28;20053;-84
2023/07/05 02:46:43;;;;;;;132.75;123.30;;;;;;;20.89;100.00;100874.13;5013220;28;20053;-85
2023/07/05 02:49:37;;;;;;;142.55;132.13;;;;;;;20.89;100.00;100871.44;5013459;28;20050;-84
2023/07/05 02:52:08;;;;;;;133.70;123.78;;;;;;;20.92;100.00;100868.19;4952700;29;20057;-84
2023/07/05 02:54:35;;;;;;;155.95;144.65;;;;;;;20.93;100.00;100867.09;4957378;28;20051;-84
2023/07/05 02:57:02;;;;;;;150.80;139.93;;;;;;;20.92;100.00;100881.69;4993248;28;20057;-84
2023/07/05 02:59:29;;;;;;;92.07;84.35;;;;;;;21.02;100.00;100884.38;5009490;28;20132;-84
2023/07/05 03:01:56;;;;;;;131.07;121.50;;;;;;;21.20;100.00;100877.59;5012631;28;20042;-84
2023/07/05 03:04:23;;;;;;;121.05;111.95;;;;;;;21.21;100.00;100868.44;5012617;28;20045;-84
2023/07/05 03:06:50;;;;;;;113.43;104.75;;;;;;;21.10;100.00;100872.22;5003912;28;20056;-84
2023/07/05 03:10:08;;;;;;;103.45;95.32;;;;;;;21.14;100.00;100875.19;5006769;28;20050;-84
2023/07/05 03:12:37;;;;;;;103.60;95.93;;;;;;;21.23;100.00;100887.88;5012607;28;20050;-84
2023/07/05 03:15:07;;;;;;;107.30;99.28;;;;;;;21.40;100.00;100882.19;5012542;28;20057;-85
2023/07/05 03:17:44;;;;;;;112.63;104.57;;;;;;;21.31;100.00;100881.13;5012614;28;20062;-84
2023/07/05 03:20:12;;;;;;;102.47;94.70;;;;;;;21.45;100.00;100878.66;5012253;28;20046;-85
2023/07/05 03:22:39;;;;;;;106.40;98.45;;;;;;;21.50;100.00;100870.56;5012271;28;20503;-84
2023/07/05 03:25:12;;;;;;;121.50;112.57;;;;;;;21.53;100.00;100871.91;5012359;28;20050;-84
2023/07/05 03:28:03;;;;;;;100.78;93.18;;;;;;;21.50;100.00;100871.34;5012373;28;20088;-85
2023/07/05 03:30:32;;;;;;;83.68;77.00;;;;;;;21.53;100.00;100878.09;5012486;28;20155;-84
2023/07/05 03:32:59;;;;;;;101.38;94.07;;;;;;;21.43;100.00;100865.44;5012401;28;20046;-84
2023/07/05 03:35:32;;;;;;;91.28;84.22;;;;;;;21.60;100.00;100867.00;5012282;28;20121;-84
2023/07/05 03:38:02;;;;;;;87.32;80.10;;;;;;;21.61;100.00;100874.84;5012142;28;20054;-84
2023/07/05 03:40:33;;;;;;;81.70;75.15;;;;;;;21.72;100.00;100878.31;5007703;28;20050;-84
2023/07/05 03:43:00;;;;;;;92.50;85.30;;;;;;;21.54;100.00;100868.09;5008320;28;20530;-84
2023/07/05 03:45:30;;;;;;;96.68;89.05;;;;;;;21.59;100.00;100878.91;4993839;28;20417;-85
2023/07/05 03:47:57;;;;;;;96.13;88.93;;;;;;;21.73;100.00;100878.03;5011352;28;20046;-84
2023/07/05 03:50:26;;;;;;;92.65;85.60;;;;;;;21.83;100.00;100879.88;4992985;28;20065;-84
2023/07/05 03:52:53;;;;;;;84.80;77.80;;;;;;;21.78;100.00;100868.28;4994369;28;20057;-83
2023/07/05 03:55:35;;;;;;;87.68;80.65;;;;;;;21.83;100.00;100873.69;5013204;28;20081;-84
2023/07/05 03:58:02;;;;;;;78.85;72.50;;;;;;;21.87;100.00;100880.13;5010224;28;20537;-82
2023/07/05 04:00:30;;;;;;;84.75;78.05;;;;;;;21.90;100.00;100879.59;5014649;28;20463;-82
2023/07/05 04:03:00;;;;;;;87.07;80.55;;;;;;;21.92;100.00;100877.41;5014706;28;20056;-84
2023/07/05 04:05:33;;;;;;;98.68;91.32;;;;;;;22.06;100.00;100872.19;5015211;28;20053;-84
2023/07/05 04:08:00;;;;;;;98.63;91.25;;;;;;;22.08;100.00;100873.53;5015078;28;20046;-85
2023/07/05 04:10:27;;;;;;;89.82;83.22;;;;;;;22.10;100.00;100878.69;5009535;28;20126;-84
2023/07/05 04:13:04;;;;;;;86.85;80.15;;;;;;;22.17;100.00;100876.50;5004573;28;20496;-84
2023/07/05 04:15:41;;;;;;;79.22;73.03;;;;;;;22.17;100.00;100873.78;5015156;28;20050;-84
2023/07/05 04:18:08;;;;;;;78.80;72.40;;;;;;;22.28;100.00;100869.16;5011312;28;20046;-84
2023/07/05 04:20:37;;;;;;;84.28;77.90;;;;;;;22.40;100.00;100870.41;4997233;28;20486;-85
2023/07/05 04:23:04;;;;;;;78.55;72.45;;;;;;;22.32;100.00;100862.88;4995595;28;20577;-84
2023/07/05 04:25:31;;;;;;;63.13;57.58;;;;;;;22.24;100.00;100863.50;4995756;28;20108;-84
2023/07/05 04:27:58;;;;;;;63.45;57.53;;;;;;;22.31;100.00;100857.75;4995418;28;20526;-84
2023/07/05 04:30:25;;;;;;;61.58;55.83;;;;;;;22.44;100.00;100867.13;4996434;28;20051;-84
2023/07/05 04:32:53;;;;;;;62.22;56.92;;;;;;;22.51;100.00;100854.09;4997573;28;20053;-84
2023/07/05 04:35:21;;;;;;;64.78;58.97;;;;;;;22.25;100.00;100861.59;5003205;28;20050;-82
2023/07/05 04:37:48;;;;;;;61.65;56.20;;;;;;;22.78;100.00;100854.41;4996505;28;20057;-82
2023/07/05 04:40:15;;;;;;;62.33;57.00;;;;;;;22.81;100.00;100856.56;5001476;28;20438;-84
2023/07/05 04:42:42;;;;;;;60.65;55.28;;;;;;;22.95;100.00;100856.72;5013873;28;20065;-84
2023/07/05 04:45:10;;;;;;;61.75;56.60;;;;;;;23.08;100.00;100857.94;5011547;28;20046;-84
2023/07/05 04:47:37;;;;;;;62.17;56.80;;;;;;;22.81;100.00;100851.16;5014192;28;20120;-84
2023/07/05 04:50:06;;;;;;;61.17;55.55;;;;;;;23.23;100.00;100857.00;4997252;28;20130;-84
2023/07/05 04:52:33;;;;;;;60.22;55.28;;;;;;;23.42;100.00;100854.34;4994568;28;20085;-84
2023/07/05 04:55:00;;;;;;;60.03;55.15;;;;;;;23.45;100.00;100859.19;5004969;28;20443;-84
2023/07/05 04:57:29;;;;;;;60.30;55.05;;;;;;;23.60;100.00;100856.31;5013221;28;20042;-82
2023/07/05 04:59:56;;;;;;;58.28;52.88;;;;;;;23.58;100.00;100850.38;4996914;28;20046;-84
2023/07/05 05:02:28;;;;;;;59.10;54.15;;;;;;;23.71;100.00;100851.59;5013954;28;20050;-84
2023/07/05 05:05:00;;;;;;;57.72;53.03;;;;;;;23.97;100.00;100852.06;5013517;28;20439;-84
2023/07/05 05:07:28;;;;;;;54.30;49.35;;;;;;;23.88;100.00;100851.91;4998300;28;20440;-83
2023/07/05 05:10:01;;;;;;;53.95;49.60;;;;;;;24.08;100.00;100853.53;5005499;28;20077;-83
2023/07/05 05:12:48;;;;;;;46.22;42.38;;;;;;;24.05;100.00;100856.03;5014076;28;20073;-82
2023/07/05 05:15:15;;;;;;;50.13;45.92;;;;;;;24.14;100.00;100862.41;4993922;28;20046;-82
2023/07/05 05:17:49;;;;;;;48.50;44.47;;;;;;;24.28;100.00;100857.84;5001848;28;20050;-82
2023/07/05 05:20:25;;;;;;;44.50;40.92;;;;;;;24.37;100.00;100858.81;5001681;28;20052;-82
2023/07/05 05:22:54;;;;;;;46.97;42.85;;;;;;;24.60;100.00;100854.41;5010060;28;20054;-82
2023/07/05 05:25:21;;;;;;;47.70;43.83;;;;;;;24.66;100.00;100860.53;4994302;28;20063;-82
2023/07/05 05:27:50;;;;;;;47.63;43.47;;;;;;;24.81;100.00;100852.16;5006673;28;20064;-82
2023/07/05 05:30:17;;;;;;;47.30;42.97;;;;;;;24.66;100.00;100861.38;5004031;28;20046;-82
2023/07/05 05:33:09;;;;;;;48.45;44.03;;;;;;;25.01;100.00;100859.13;4997444;28;20066;-82
2023/07/05 05:35:36;;;;;;;43.05;39.10;;;;;;;25.07;100.00;100852.50;4983245;28;20411;-82
2023/07/05 05:38:05;;;;;;;46.97;42.97;;;;;;;25.27;100.00;100845.91;4995745;28;20038;-82
2023/07/05 05:40:41;;;;;;;45.85;41.53;;;;;;;25.32;100.00;100851.22;5008749;28;20043;-82
2023/07/05 05:43:12;;;;;;;46.50;42.22;;;;;;;25.15;100.00;100858.38;4994381;28;20415;-82
2023/07/05 05:45:39;;;;;;;45.72;41.35;;;;;;;25.30;100.00;100855.38;5010968;28;20046;-83
2023/07/05 05:48:08;;;;;;;46.17;41.50;;;;;;;25.78;100.00;100846.75;5011854;28;20046;-82
2023/07/05 05:50:42;;;;;;;44.67;41.17;;;;;;;25.95;100.00;100843.44;5012356;28;20053;-82
2023/07/05 05:53:15;;;;;;;43.08;39.55;;;;;;;26.23;100.00;100846.88;4993241;28;20043;-83
2023/07/05 05:55:42;;;;;;;44.17;40.65;;;;;;;26.49;100.00;100837.03;4992987;28;20400;-83
2023/07/05 05:58:10;;;;;;;41.05;37.83;;;;;;;26.70;100.00;100848.22;4992846;28;20409;-82
2023/07/05 06:00:43;;;;;;;40.67;37.30;;;;;;;26.70;100.00;100839.25;4992532;28;20042;-82
2023/07/05 06:03:10;;;;;;;39.80;36.58;;;;;;;26.54;100.00;100844.28;5006376;28;20045;-82
2023/07/05 06:05:57;;;;;;;47.28;43.35;;;;;;;26.78;100.00;100856.75;5000353;28;20077;-84
2023/07/05 06:08:27;;;;;;;41.55;38.33;;;;;;;26.99;100.00;100837.94;5006393;28;20136;-84
2023/07/05 06:10:58;;;;;;;40.22;37.28;;;;;;;27.30;100.00;100848.88;5001545;28;20056;-84
2023/07/05 06:13:27;;;;;;;39.78;36.63;;;;;;;27.15;100.00;100839.19;5007725;28;20061;-85
2023/07/05 06:15:57;;;;;;;37.83;34.83;;;;;;;27.44;100.00;100846.81;5003880;28;20442;-84
2023/07/05 06:18:26;;;;;;;33.63;30.95;;;;;;;27.42;100.00;100845.53;5000780;28;20050;-84
2023/07/05 06:20:53;;;;;;;34.58;31.25;;;;;;;27.34;100.00;100850.63;5012328;28;20054;-84
2023/07/05 06:23:20;;;;;;;33.25;30.52;;;;;;;27.41;100.00;100847.44;5012120;28;20495;-84
2023/07/05 06:25:49;;;;;;;33.15;30.55;;;;;;;27.43;100.00;100852.59;4994521;28;20054;-85
2023/07/05 06:28:24;;;;;;;29.08;26.58;;;;;;;27.49;100.00;100851.34;4995315;28;20049;-84
2023/07/05 06:30:56;;;;;;;31.00;28.55;;;;;;;27.48;100.00;100847.81;4997609;28;20046;-85
2023/07/05 06:33:29;;;;;;;32.58;30.08;;;;;;;27.84;100.00;100853.06;4999595;28;20046;-84
2023/07/05 06:36:00;;;;;;;27.83;25.50;;;;;;;28.22;100.00;100843.44;5005332;28;20058;-84
2023/07/05 06:38:34;;;;;;;30.83;28.17;;;;;;;28.38;100.00;100838.28;5002630;28;20042;-84
2023/07/05 06:41:03;;;;;;;30.50;28.00;;;;;;;28.27;100.00;100844.06;5007726;28;20057;-84
2023/07/05 06:43:46;;;;;;;29.30;27.15;;;;;;;28.33;100.00;100852.09;4998170;28;20046;-85
2023/07/05 06:46:13;;;;;;;27.02;24.88;;;;;;;28.62;100.00;100845.97;4993469;28;20081;-85
2023/07/05 06:48:40;;;;;;;26.77;24.77;;;;;;;28.86;100.00;100848.16;4998851;28;20058;-84
2023/07/05 06:51:24;;;;;;;26.10;23.88;;;;;;;29.01;100.00;100847.63;5012914;28;20049;-84
2023/07/05 06:53:51;;;;;;;24.30;22.15;;;;;;;29.02;100.00;100845.72;5007936;28;20038;-84
2023/07/05 06:56:22;;;;;;;26.10;23.90;;;;;;;29.04;100.00;100847.00;4992864;28;20054;-84
2023/07/05 06:58:48;;;;;;;24.52;22.38;;;;;;;29.11;100.00;100847.31;5000096;28;20061;-84
2023/07/05 07:01:15;;;;;;;24.08;22.23;;;;;;;29.40;100.00;100849.25;5001214;28;20041;-84
2023/07/05 07:03:44;;;;;;;24.83;22.52;;;;;;;29.17;100.00;100845.22;5012338;28;20057;-85
2023/07/05 07:06:12;;;;;;;23.50;21.45;;;;;;;29.38;100.00;100850.72;5011603;28;20038;-84
2023/07/05 07:08:39;;;;;;;24.25;22.33;;;;;;;29.28;100.00;100857.38;5008507;28;20054;-84
2023/07/05 07:11:07;;;;;;;26.27;24.08;;;;;;;29.29;100.00;100847.22;4994455;28;20046;-85
2023/07/05 07:13:36;;;;;;;28.80;26.60;;;;;;;29.59;100.00;100848.03;5011664;28;20145;-85
2023/07/05 07:16:05;;;;;;;27.33;25.23;;;;;;;29.76;100.00;100858.09;4992556;28;20533;-84
2023/07/05 07:18:36;;;;;;;27.33;25.00;;;;;;;29.75;100.00;100851.03;5011175;28;20052;-82
2023/07/05 07:21:05;;;;;;;29.55;27.40;;;;;;;29.73;100.00;100851.34;5002153;28;20053;-84
2023/07/05 07:23:32;;;;;;;25.70;23.58;;;;;;;29.86;100.00;100852.22;4991495;28;20046;-84
2023/07/05 07:26:01;;;;;;;30.60;28.40;;;;;;;29.82;100.00;100854.03;4991500;28;20504;-84
2023/07/05 07:28:27;;;;;;;30.00;27.70;;;;;;;29.70;100.00;100853.97;4992416;28;20141;-82
2023/07/05 07:30:56;;;;;;;28.83;26.63;;;;;;;29.97;100.00;100856.19;4996766;28;20065;-82
2023/07/05 07:33:23;;;;;;;25.73;23.73;;;;;;;29.79;100.00;100851.97;5007808;28;21050;-82
2023/07/05 07:36:07;;;;;;;27.08;24.77;;;;;;;30.10;100.00;100857.84;4996130;28;20062;-84
2023/07/05 07:38:45;;;;;;;31.00;28.40;;;;;;;30.44;100.00;100850.50;4994234;28;20061;-84
2023/07/05 07:41:14;;;;;;;25.75;23.60;;;;;;;30.58;100.00;100853.72;4993226;28;20220;-83
2023/07/05 07:43:42;;;;;;;26.67;24.45;;;;;;;30.71;100.00;100856.50;5000242;28;20057;-82
2023/07/05 07:46:12;;;;;;;26.70;24.55;;;;;;;30.88;100.00;100850.06;5009109;28;20049;-83
2023/07/05 07:48:41;;;;;;;26.67;24.50;;;;;;;30.32;100.00;100858.69;5010471;28;20412;-82
2023/07/05 07:51:08;;;;;;;26.10;24.20;;;;;;;30.80;100.00;100851.75;5010867;28;20061;-83
2023/07/05 07:53:37;;;;;;;26.00;24.10;;;;;;;30.69;100.00;100858.81;5010624;28;20058;-82
2023/07/05 07:56:11;;;;;;;24.27;22.27;;;;;;;30.58;100.00;100842.78;5006358;28;20050;-82
2023/07/05 07:58:38;;;;;;;26.90;24.90;;;;;;;30.61;100.00;100856.94;5010999;28;20153;-84
2023/07/05 08:01:12;;;;;;;27.52;25.23;;;;;;;29.69;100.00;100855.09;5011338;28;20072;-84
2023/07/05 08:03:41;;;;;;;28.33;26.23;;;;;;;30.12;100.00;100852.03;5002618;28;20057;-84
2023/07/05 08:06:16;;;;;;;26.02;23.90;;;;;;;30.71;100.00;100851.84;5008544;28;20049;-84
2023/07/05 08:08:44;;;;;;;31.42;29.23;;;;;;;31.03;100.00;100846.66;5011135;28;20097;-82
2023/07/05 08:11:11;;;;;;;28.15;25.63;;;;;;;30.85;100.00;100853.50;5010928;28;20061;-83
2023/07/05 08:13:40;;;;;;;26.30;24.13;;;;;;;31.35;100.00;100852.41;5010501;28;20042;-84
2023/07/05 08:16:08;;;;;;;27.42;25.30;;;;;;;30.75;100.00;100844.53;5001507;28;20074;-82
2023/07/05 08:18:36;;;;;;;24.90;22.95;;;;;;;30.62;100.00;100844.84;5002591;28;20442;-82
2023/07/05 08:21:03;;;;;;;24.40;22.50;;;;;;;31.43;100.00;100844.06;5006967;28;20060;-84
2023/07/05 08:23:30;;;;;;;24.48;22.67;;;;;;;31.53;100.00;100844.75;5008124;28;20053;-81
2023/07/05 08:26:04;;;;;;;25.17;23.33;;;;;;;30.79;100.00;100855.66;5010968;28;20049;-85
2023/07/05 08:28:32;;;;;;;24.98;22.98;;;;;;;31.09;100.00;100850.00;5007599;28;20077;-84
2023/07/05 08:31:06;;;;;;;23.88;21.90;;;;;;;31.53;100.00;100852.97;4997016;28;20495;-84
2023/07/05 08:33:36;;;;;;;32.47;30.17;;;;;;;31.33;100.00;100858.22;5001460;28;20065;-84
2023/07/05 08:36:11;;;;;;;32.25;29.88;;;;;;;31.24;100.00;100857.53;4992338;28;20054;-85
2023/07/05 08:38:39;;;;;;;27.20;24.73;;;;;;;31.46;100.00;100845.31;4997784;28;20431;-85
2023/07/05 08:41:13;;;;;;;26.55;24.38;;;;;;;31.88;100.00;100845.03;5012625;28;20046;-84
2023/07/05 08:43:44;;;;;;;29.95;27.65;;;;;;;32.32;100.00;100847.91;5001420;28;20442;-83
2023/07/05 08:46:14;;;;;;;29.65;27.55;;;;;;;31.31;100.00;100846.78;5006327;28;20049;-83
2023/07/05 08:48:44;;;;;;;29.42;27.42;;;;;;;31.98;100.00;100843.78;5006319;28;20178;-83
2023/07/05 08:51:16;;;;;;;32.00;29.90;;;;;;;31.78;100.00;100849.06;5006346;28;20056;-83
2023/07/05 08:53:47;;;;;;;;;;;;;;;32.07;100.00;100852.66;5007991;28;20104;-84
2023/07/05 08:56:20;;;;;;;27.52;25.27;;;;;;;31.12;100.00;100846.56;5012056;28;19929;-82
2023/07/05 08:58:56;;;;;;;29.83;27.63;;;;;;;31.22;100.00;100837.88;4999324;28;20508;-82
2023/07/05 09:01:27;;;;;;;25.73;23.48;;;;;;;31.92;100.00;100841.28;5013591;28;20060;-84
2023/07/05 09:03:56;;;;;;;39.72;37.22;;;;;;;32.11;100.00;100834.34;4997315;28;20503;-83
2023/07/05 09:06:25;;;;;;;39.97;37.28;;;;;;;32.17;100.00;100842.00;5004724;28;20546;-84
2023/07/05 09:09:04;;;;;;;37.97;35.38;;;;;;;32.49;100.00;100852.28;5007804;28;20124;-84
2023/07/05 09:11:48;;;;;;;39.25;36.58;;;;;;;32.03;100.00;100841.56;5007212;28;20062;-82
2023/07/05 09:14:23;;;;;;;30.45;28.15;;;;;;;31.84;100.00;100841.38;5004858;28;20773;-83
2023/07/05 09:16:57;;;;;;;27.98;25.88;;;;;;;32.31;100.00;100838.03;5012771;28;20054;-83
2023/07/05 09:19:44;;;;;;;27.15;25.13;;;;;;;32.47;89.76;100832.59;5003406;28;20546;-83
2023/07/05 09:22:17;;;;;;;27.75;25.75;;;;;;;32.53;85.16;100832.00;4998718;28;20046;-85
2023/07/05 09:24:46;;;;;;;29.02;26.80;;;;;;;32.54;88.98;100841.84;4993982;28;20050;-84
2023/07/05 09:27:18;;;;;;;31.45;28.92;;;;;;;32.82;91.14;100825.28;5006107;28;20132;-85
2023/07/05 09:29:51;;;;;;;29.15;26.95;;;;;;;32.65;100.00;100824.81;4998155;28;20053;-85
2023/07/05 09:32:20;;;;;;;29.05;26.75;;;;;;;32.20;100.00;100823.22;5010439;28;20108;-84
2023/07/05 09:34:54;;;;;;;28.83;26.33;;;;;;;32.84;100.00;100820.25;5006995;28;20045;-84
2023/07/05 09:37:26;;;;;;;28.15;25.95;;;;;;;33.22;96.73;100820.78;5013305;28;20419;-84
2023/07/05 09:40:16;;;;;;;29.55;27.35;;;;;;;32.14;100.00;100822.66;5013923;28;20132;-86
2023/07/05 09:42:49;;;;;;;32.55;29.50;;;;;;;32.61;100.00;100822.78;4993313;28;20198;-83
2023/07/05 09:45:18;;;;;;;29.50;27.08;;;;;;;32.35;100.00;100820.50;4997239;28;20057;-85
2023/07/05 09:47:50;;;;;;;28.83;26.20;;;;;;;32.72;100.00;100822.28;4994404;28;20050;-83
2023/07/05 09:50:24;;;;;;;;;;;;;;;33.23;94.53;100817.69;4994455;28;20089;-82
2023/07/05 09:53:02;;;;;;;30.83;28.02;;;;;;;32.53;100.00;100804.53;4993314;28;19967;-82
2023/07/05 09:55:32;;;;;;;30.55;28.23;;;;;;;32.23;100.00;100819.78;5000788;28;20049;-83
2023/07/05 09:57:59;;;;;;;31.58;28.92;;;;;;;32.69;97.66;100814.75;5011409;28;20053;-83
2023/07/05 10:00:32;;;;;;;28.90;26.70;;;;;;;32.01;100.00;100807.38;5006083;28;20404;-83
2023/07/05 10:03:07;;;;;;;30.02;27.23;;;;;;;32.52;100.00;100810.38;5005134;28;20046;-83
2023/07/05 10:05:35;;;;;;;27.55;25.27;;;;;;;32.38;92.76;100814.31;5003546;28;20061;-82
2023/07/05 10:08:16;;;;;;;25.77;23.88;;;;;;;32.29;100.00;100801.88;4993983;28;20053;-82
2023/07/05 10:10:43;;;;;;;25.27;23.05;;;;;;;32.95;95.57;100805.94;4999119;28;20085;-84
2023/07/05 10:13:15;;;;;;;24.50;22.30;;;;;;;32.03;100.00;100805.88;5013014;28;20061;-86
2023/07/05 10:15:44;;;;;;;24.25;22.23;;;;;;;32.27;100.00;100806.94;5014350;28;20056;-84
2023/07/05 10:18:26;;;;;;;25.27;22.60;;;;;;;32.59;88.94;100807.81;5012623;28;20042;-84
2023/07/05 10:20:57;;;;;;;23.60;21.35;;;;;;;33.04;74.34;100796.41;5009405;28;20097;-85
2023/07/05 10:23:24;;;;;;;35.35;32.78;;;;;;;33.25;91.28;100801.59;4996368;28;20065;-87
2023/07/05 10:25:53;;;;;;;35.15;33.05;;;;;;;33.56;69.68;100788.13;5012838;28;20057;-84
2023/07/05 10:28:28;;;;;;;39.08;36.50;;;;;;;33.72;82.74;100792.44;5012953;28;20042;-86
2023/07/05 10:31:05;;;;;;;37.63;35.42;;;;;;;33.38;80.17;100796.00;5012550;28;20084;-82
2023/07/05 10:33:35;;;;;;;39.30;36.70;;;;;;;33.73;65.65;100787.72;4999892;28;20492;-85
2023/07/05 10:36:13;;;;;;;32.50;30.40;;;;;;;33.18;80.67;100786.88;5013281;28;20045;-85
2023/07/05 10:38:46;;;;;;;31.48;29.40;;;;;;;33.36;73.40;100779.81;5012493;28;20470;-83
2023/07/05 10:41:31;;;;;;;34.47;32.33;;;;;;;33.38;92.84;100779.47;5012514;28;20045;-86
2023/07/05 10:44:02;;;;;;;30.85;28.55;;;;;;;33.90;85.19;100772.72;5012582;28;20046;-86
2023/07/05 10:46:28;;;;;;;31.83;29.38;;;;;;;33.85;87.60;100768.28;4998539;28;20050;-86
2023/07/05 10:49:15;;;;;;;32.63;30.60;;;;;;;34.26;63.73;100779.75;4996952;28;20051;-85
2023/07/05 10:51:48;;;;;;;25.33;23.52;;;;;;;34.42;46.01;100771.38;5005839;28;20050;-86
2023/07/05 10:54:27;;;;;;;23.73;21.90;;;;;;;33.99;50.02;100765.03;5011703;28;20522;-84
2023/07/05 10:56:55;;;;;;;24.30;22.38;;;;;;;33.68;68.03;100764.03;5012808;28;20535;-86
2023/07/05 10:59:31;;;;;;;22.75;20.90;;;;;;;34.26;79.19;100757.69;4992952;28;20508;-86
2023/07/05 11:02:37;;;;;;;32.15;29.63;;;;;;;33.72;89.23;100756.63;4993719;28;20049;-85
2023/07/05 11:05:24;;;;;;;40.83;38.22;;;;;;;34.49;58.88;100756.91;4952929;28;20051;-85
2023/07/05 11:07:55;;;;;;;47.22;44.45;;;;;;;34.56;52.87;100749.59;4958168;28;21296;-84
2023/07/05 11:10:41;;;;;;;43.55;40.90;;;;;;;33.20;90.75;100766.09;4997096;28;20462;-82
2023/07/05 11:13:13;;;;;;;41.45;39.03;;;;;;;34.09;66.11;100760.91;5012502;28;20042;-86
2023/07/05 11:15:41;;;;;;;38.55;35.95;;;;;;;33.14;77.41;100753.78;5008640;28;20050;-82
2023/07/05 11:18:13;;;;;;;34.65;32.45;;;;;;;34.70;56.47;100742.72;4994657;28;20046;-82
2023/07/05 11:20:49;;;;;;;32.55;30.15;;;;;;;33.24;94.95;100753.22;5009935;28;20111;-83
2023/07/05 11:23:55;;;;;;;25.42;23.20;;;;;;;34.42;66.56;100744.59;4994266;28;20438;-84
2023/07/05 11:26:41;;;;;;;23.67;21.92;;;;;;;34.20;61.80;100748.16;5000703;28;20057;-84
2023/07/05 11:29:51;;;;;;;23.42;21.73;;;;;;;32.97;74.14;100740.38;4992526;28;20317;-82
2023/07/05 11:32:19;;;;;;;43.10;40.40;;;;;;;33.04;98.93;100743.31;5008045;28;20050;-82